메인 페이지
METAR-TAF:

METAR-TAF

공항 :

엘알토 국제공항

라파스, 볼리비아

위도: 16-31S, 경도: 068-11W, 고도: 4058m

현재 날씨관측

예보는 53분 전, 22:00시(UTC)에 발표되었습니다.
북서5kt
온도 11°C
습도 24%
기압 1038 hPa
시정 10km 이상

METAR: SLLP 202200Z 32005KT 9999 NSC 11/M09 Q1038

시각: 18:53 (22:53 UTC)

예보

예보는 6 시간 53분 전, 16:00시(UTC)에 발표되었습니다.
예보 대상 시간: 20일 18시부터 21일 18시까지 (UTC)
북북서15kt
시정 10km 이상
전환 중
21일 00시부터 21일 03시까지 (UTC)
6kt
전환 중
21일 12시부터 21일 14시까지 (UTC)
10kt

TAF: SLLP 201600Z 2018/2118 33015KT 9999 NSC TX16/2019Z TNM06/2111Z BECMG 2100/2103 09006KT BECMG 2112/2114 27010KT

4,000개 이상의 공항 관측 자료 및 예보 (METAR 및 TAF 보고).

지도상에서 검색 가능한 기상관측소가 노란 점과 빨간 점으로 표시되어 있습니다.

기상관측소 명을 보려면 표시 위로 마우스를 이동하세요.

날씨 관측과 예보를 보려면 클릭하세요.

지도 변경 : 확대하려면 엑스 표시가 있는 녹색 버튼, 축소하려면 빼기 표시가 있는 녹색 버튼, 다음 페이지의 지도를 보려면 녹색 화살표를 클릭하세요.


METAR-TAF: